sensor_id;sensor_type;location;lat;lon;timestamp;pressure;altitude;pressure_sealevel;temperature;humidity
53889;BME280;41337;51.400;-2.342;2022-12-18T00:04:47;101552.22;;;-3.48;100.00
53889;BME280;41337;51.400;-2.342;2022-12-18T00:10:08;101541.56;;;-3.42;100.00
53889;BME280;41337;51.400;-2.342;2022-12-18T00:15:36;101540.22;;;-3.37;100.00
53889;BME280;41337;51.400;-2.342;2022-12-18T00:21:06;101528.47;;;-3.35;100.00
53889;BME280;41337;51.400;-2.342;2022-12-18T00:26:33;101516.28;;;-3.39;100.00
53889;BME280;41337;51.400;-2.342;2022-12-18T00:32:00;101518.06;;;-3.38;100.00
53889;BME280;41337;51.400;-2.342;2022-12-18T00:37:01;101516.09;;;-3.42;100.00
53889;BME280;41337;51.400;-2.342;2022-12-18T00:42:28;101507.56;;;-3.43;100.00
53889;BME280;41337;51.400;-2.342;2022-12-18T00:47:47;101500.25;;;-3.38;100.00
53889;BME280;41337;51.400;-2.342;2022-12-18T00:53:14;101485.25;;;-3.34;100.00
53889;BME280;41337;51.400;-2.342;2022-12-18T00:58:35;101485.94;;;-3.36;100.00
53889;BME280;41337;51.400;-2.342;2022-12-18T01:04:03;101474.88;;;-3.37;100.00
53889;BME280;41337;51.400;-2.342;2022-12-18T01:09:30;101460.91;;;-3.42;100.00
53889;BME280;41337;51.400;-2.342;2022-12-18T01:14:51;101474.22;;;-3.46;100.00
53889;BME280;41337;51.400;-2.342;2022-12-18T01:19:55;101472.47;;;-3.59;100.00
53889;BME280;41337;51.400;-2.342;2022-12-18T01:24:56;101484.66;;;-3.66;100.00
53889;BME280;41337;51.400;-2.342;2022-12-18T01:30:17;101480.16;;;-3.71;100.00
53889;BME280;41337;51.400;-2.342;2022-12-18T01:35:44;101488.66;;;-3.70;100.00
53889;BME280;41337;51.400;-2.342;2022-12-18T01:40:44;101477.25;;;-3.63;100.00
53889;BME280;41337;51.400;-2.342;2022-12-18T01:46:05;101480.44;;;-3.54;100.00
53889;BME280;41337;51.400;-2.342;2022-12-18T01:51:11;101471.13;;;-3.54;100.00
53889;BME280;41337;51.400;-2.342;2022-12-18T01:56:32;101472.13;;;-3.52;100.00
53889;BME280;41337;51.400;-2.342;2022-12-18T02:01:33;101457.84;;;-3.49;100.00
53889;BME280;41337;51.400;-2.342;2022-12-18T02:13:36;101444.53;;;-3.45;100.00
53889;BME280;41337;51.400;-2.342;2022-12-18T02:19:03;101434.22;;;-3.47;100.00
53889;BME280;41337;51.400;-2.342;2022-12-18T02:24:40;101429.13;;;-3.47;100.00
53889;BME280;41337;51.400;-2.342;2022-12-18T02:29:50;101422.59;;;-3.43;100.00
53889;BME280;41337;51.400;-2.342;2022-12-18T02:35:19;101429.00;;;-3.37;100.00
53889;BME280;41337;51.400;-2.342;2022-12-18T02:40:23;101425.41;;;-3.27;100.00
53889;BME280;41337;51.400;-2.342;2022-12-18T02:45:57;101427.31;;;-3.11;100.00
53889;BME280;41337;51.400;-2.342;2022-12-18T02:51:11;101415.00;;;-3.05;100.00
53889;BME280;41337;51.400;-2.342;2022-12-18T02:56:40;101413.72;;;-2.98;100.00
53889;BME280;41337;51.400;-2.342;2022-12-18T03:01:57;101413.94;;;-2.95;100.00
53889;BME280;41337;51.400;-2.342;2022-12-18T03:07:08;101391.41;;;-2.89;100.00
53889;BME280;41337;51.400;-2.342;2022-12-18T03:12:39;101382.59;;;-2.81;100.00
53889;BME280;41337;51.400;-2.342;2022-12-18T03:18:15;101369.16;;;-2.65;100.00
53889;BME280;41337;51.400;-2.342;2022-12-18T03:23:48;101380.16;;;-2.52;100.00
53889;BME280;41337;51.400;-2.342;2022-12-18T03:28:59;101364.63;;;-2.42;100.00
53889;BME280;41337;51.400;-2.342;2022-12-18T03:34:29;101369.56;;;-2.32;100.00
53889;BME280;41337;51.400;-2.342;2022-12-18T03:39:35;101364.22;;;-2.22;100.00
53889;BME280;41337;51.400;-2.342;2022-12-18T03:51:22;101338.56;;;-2.10;100.00
53889;BME280;41337;51.400;-2.342;2022-12-18T03:56:29;101326.19;;;-2.04;100.00
53889;BME280;41337;51.400;-2.342;2022-12-18T04:01:54;101308.88;;;-1.94;100.00
53889;BME280;41337;51.400;-2.342;2022-12-18T04:07:24;101295.88;;;-1.84;100.00
53889;BME280;41337;51.400;-2.342;2022-12-18T04:12:26;101264.28;;;-1.71;100.00
53889;BME280;41337;51.400;-2.342;2022-12-18T04:17:32;101256.44;;;-1.59;100.00
53889;BME280;41337;51.400;-2.342;2022-12-18T04:22:33;101242.34;;;-1.53;100.00
53889;BME280;41337;51.400;-2.342;2022-12-18T04:27:54;101224.09;;;-1.44;100.00
53889;BME280;41337;51.400;-2.342;2022-12-18T04:32:55;101232.22;;;-1.36;100.00
53889;BME280;41337;51.400;-2.342;2022-12-18T04:37:56;101227.47;;;-1.30;100.00
53889;BME280;41337;51.400;-2.342;2022-12-18T04:43:17;101223.41;;;-1.26;100.00
53889;BME280;41337;51.400;-2.342;2022-12-18T04:48:41;101209.28;;;-1.20;100.00
53889;BME280;41337;51.400;-2.342;2022-12-18T04:53:42;101200.28;;;-1.13;100.00
53889;BME280;41337;51.400;-2.342;2022-12-18T04:58:44;101209.09;;;-1.08;100.00
53889;BME280;41337;51.400;-2.342;2022-12-18T05:04:11;101198.16;;;-1.05;100.00
53889;BME280;41337;51.400;-2.342;2022-12-18T05:09:11;101200.81;;;-1.04;100.00
53889;BME280;41337;51.400;-2.342;2022-12-18T05:14:38;101176.28;;;-1.00;100.00
53889;BME280;41337;51.400;-2.342;2022-12-18T05:20:08;101163.81;;;-0.94;100.00
53889;BME280;41337;51.400;-2.342;2022-12-18T05:25:29;101146.25;;;-0.88;100.00
53889;BME280;41337;51.400;-2.342;2022-12-18T05:30:55;101125.38;;;-0.79;100.00
53889;BME280;41337;51.400;-2.342;2022-12-18T05:36:20;101113.81;;;-0.72;100.00
53889;BME280;41337;51.400;-2.342;2022-12-18T05:41:21;101104.69;;;-0.67;100.00
53889;BME280;41337;51.400;-2.342;2022-12-18T05:46:21;101095.72;;;-0.59;100.00
53889;BME280;41337;51.400;-2.342;2022-12-18T05:51:42;101097.25;;;-0.46;100.00
53889;BME280;41337;51.400;-2.342;2022-12-18T05:56:43;101095.00;;;-0.40;100.00
53889;BME280;41337;51.400;-2.342;2022-12-18T06:01:44;101083.38;;;-0.33;100.00
53889;BME280;41337;51.400;-2.342;2022-12-18T06:07:05;101084.41;;;-0.30;100.00
53889;BME280;41337;51.400;-2.342;2022-12-18T06:12:07;101096.91;;;-0.20;100.00
53889;BME280;41337;51.400;-2.342;2022-12-18T06:17:32;101092.72;;;-0.17;100.00
53889;BME280;41337;51.400;-2.342;2022-12-18T06:22:33;101083.66;;;-0.11;100.00
53889;BME280;41337;51.400;-2.342;2022-12-18T06:27:59;101083.97;;;-0.05;100.00
53889;BME280;41337;51.400;-2.342;2022-12-18T06:33:29;101073.16;;;0.01;100.00
53889;BME280;41337;51.400;-2.342;2022-12-18T06:38:54;101075.94;;;0.06;100.00
53889;BME280;41337;51.400;-2.342;2022-12-18T06:43:55;101085.75;;;0.14;100.00
53889;BME280;41337;51.400;-2.342;2022-12-18T06:49:21;101110.72;;;0.18;100.00
53889;BME280;41337;51.400;-2.342;2022-12-18T06:54:42;101124.78;;;0.27;100.00
53889;BME280;41337;51.400;-2.342;2022-12-18T07:00:05;101131.03;;;0.32;100.00
53889;BME280;41337;51.400;-2.342;2022-12-18T07:05:09;101140.63;;;0.36;100.00
53889;BME280;41337;51.400;-2.342;2022-12-18T07:10:10;101146.72;;;0.38;100.00
53889;BME280;41337;51.400;-2.342;2022-12-18T07:15:31;101135.78;;;0.42;100.00
53889;BME280;41337;51.400;-2.342;2022-12-18T07:20:32;101117.91;;;0.44;100.00
53889;BME280;41337;51.400;-2.342;2022-12-18T07:25:39;101121.38;;;0.44;100.00
53889;BME280;41337;51.400;-2.342;2022-12-18T07:31:09;101107.88;;;0.48;100.00
53889;BME280;41337;51.400;-2.342;2022-12-18T07:36:11;101118.28;;;0.51;100.00
53889;BME280;41337;51.400;-2.342;2022-12-18T07:41:13;101116.81;;;0.57;100.00
53889;BME280;41337;51.400;-2.342;2022-12-18T07:46:37;101125.53;;;0.60;100.00
53889;BME280;41337;51.400;-2.342;2022-12-18T07:51:58;101116.19;;;0.61;100.00
53889;BME280;41337;51.400;-2.342;2022-12-18T07:56:59;101098.22;;;0.61;100.00
53889;BME280;41337;51.400;-2.342;2022-12-18T08:02:06;101096.75;;;0.66;100.00
53889;BME280;41337;51.400;-2.342;2022-12-18T08:07:46;101145.56;;;0.67;100.00
53889;BME280;41337;51.400;-2.342;2022-12-18T08:13:13;101138.09;;;0.72;100.00
53889;BME280;41337;51.400;-2.342;2022-12-18T08:18:37;101143.22;;;0.72;100.00
53889;BME280;41337;51.400;-2.342;2022-12-18T08:24:00;101125.25;;;0.72;100.00
53889;BME280;41337;51.400;-2.342;2022-12-18T08:29:08;101105.53;;;0.71;100.00
53889;BME280;41337;51.400;-2.342;2022-12-18T08:34:29;101097.03;;;0.72;100.00
53889;BME280;41337;51.400;-2.342;2022-12-18T08:40:03;101078.25;;;0.73;100.00
53889;BME280;41337;51.400;-2.342;2022-12-18T08:45:34;101078.94;;;0.69;100.00
53889;BME280;41337;51.400;-2.342;2022-12-18T08:50:59;101060.72;;;0.63;100.00
53889;BME280;41337;51.400;-2.342;2022-12-18T08:56:00;101035.22;;;0.66;100.00
53889;BME280;41337;51.400;-2.342;2022-12-18T09:01:05;101030.09;;;0.66;100.00
53889;BME280;41337;51.400;-2.342;2022-12-18T09:06:26;101008.56;;;0.62;100.00
53889;BME280;41337;51.400;-2.342;2022-12-18T09:11:29;100992.13;;;0.59;100.00
53889;BME280;41337;51.400;-2.342;2022-12-18T09:16:56;100990.53;;;0.61;100.00
53889;BME280;41337;51.400;-2.342;2022-12-18T09:21:57;100989.19;;;0.69;100.00
53889;BME280;41337;51.400;-2.342;2022-12-18T09:26:57;100982.44;;;0.71;100.00
53889;BME280;41337;51.400;-2.342;2022-12-18T09:31:59;100970.63;;;0.75;100.00
53889;BME280;41337;51.400;-2.342;2022-12-18T09:37:00;100954.38;;;0.74;100.00
53889;BME280;41337;51.400;-2.342;2022-12-18T09:42:26;100958.81;;;0.78;100.00
53889;BME280;41337;51.400;-2.342;2022-12-18T09:47:37;100965.97;;;0.85;100.00
53889;BME280;41337;51.400;-2.342;2022-12-18T09:52:54;100960.84;;;0.85;100.00
53889;BME280;41337;51.400;-2.342;2022-12-18T09:58:20;100937.84;;;0.87;100.00
53889;BME280;41337;51.400;-2.342;2022-12-18T10:03:25;100939.72;;;0.91;100.00
53889;BME280;41337;51.400;-2.342;2022-12-18T10:14:05;100926.34;;;0.98;100.00
53889;BME280;41337;51.400;-2.342;2022-12-18T10:19:43;100913.69;;;1.03;100.00
53889;BME280;41337;51.400;-2.342;2022-12-18T10:30:30;100866.19;;;1.13;100.00
53889;BME280;41337;51.400;-2.342;2022-12-18T10:35:32;100858.63;;;1.16;100.00
53889;BME280;41337;51.400;-2.342;2022-12-18T10:46:20;100817.09;;;1.24;100.00
53889;BME280;41337;51.400;-2.342;2022-12-18T10:51:48;100799.22;;;1.27;100.00
53889;BME280;41337;51.400;-2.342;2022-12-18T10:56:49;100781.38;;;1.31;100.00
53889;BME280;41337;51.400;-2.342;2022-12-18T11:07:52;100754.97;;;1.33;100.00
53889;BME280;41337;51.400;-2.342;2022-12-18T11:13:23;100762.84;;;1.38;100.00
53889;BME280;41337;51.400;-2.342;2022-12-18T11:18:32;100745.91;;;1.43;100.00
53889;BME280;41337;51.400;-2.342;2022-12-18T11:23:53;100723.88;;;1.48;100.00
53889;BME280;41337;51.400;-2.342;2022-12-18T11:29:53;100708.69;;;1.54;100.00
53889;BME280;41337;51.400;-2.342;2022-12-18T11:41:04;100682.47;;;1.63;100.00
53889;BME280;41337;51.400;-2.342;2022-12-18T11:46:19;100669.00;;;1.69;100.00
53889;BME280;41337;51.400;-2.342;2022-12-18T11:51:50;100649.47;;;1.74;100.00
53889;BME280;41337;51.400;-2.342;2022-12-18T12:03:11;100617.44;;;1.88;100.00
53889;BME280;41337;51.400;-2.342;2022-12-18T12:21:18;100537.66;;;2.11;100.00
53889;BME280;41337;51.400;-2.342;2022-12-18T12:26:23;100524.19;;;2.18;100.00
53889;BME280;41337;51.400;-2.342;2022-12-18T12:43:39;100476.25;;;2.47;100.00
53889;BME280;41337;51.400;-2.342;2022-12-18T12:48:48;100455.81;;;2.52;100.00
53889;BME280;41337;51.400;-2.342;2022-12-18T12:53:50;100456.06;;;2.61;100.00
53889;BME280;41337;51.400;-2.342;2022-12-18T12:59:22;100436.56;;;2.69;100.00
53889;BME280;41337;51.400;-2.342;2022-12-18T13:04:39;100428.22;;;2.77;100.00
53889;BME280;41337;51.400;-2.342;2022-12-18T13:21:20;100380.78;;;3.00;100.00
53889;BME280;41337;51.400;-2.342;2022-12-18T13:26:44;100363.03;;;3.09;100.00
53889;BME280;41337;51.400;-2.342;2022-12-18T13:32:26;100354.59;;;3.17;100.00
53889;BME280;41337;51.400;-2.342;2022-12-18T13:42:39;100319.94;;;3.37;100.00
53889;BME280;41337;51.400;-2.342;2022-12-18T13:48:27;100309.06;;;3.51;100.00
53889;BME280;41337;51.400;-2.342;2022-12-18T13:59:41;100273.66;;;3.80;100.00
53889;BME280;41337;51.400;-2.342;2022-12-18T14:04:45;100245.56;;;3.94;100.00
53889;BME280;41337;51.400;-2.342;2022-12-18T14:09:55;100213.19;;;4.08;100.00
53889;BME280;41337;51.400;-2.342;2022-12-18T14:16:06;100192.06;;;4.28;100.00
53889;BME280;41337;51.400;-2.342;2022-12-18T14:20:48;100178.50;;;4.38;100.00
53889;BME280;41337;51.400;-2.342;2022-12-18T14:26:27;100168.53;;;4.58;100.00
53889;BME280;41337;51.400;-2.342;2022-12-18T14:31:32;100158.44;;;4.73;100.00
53889;BME280;41337;51.400;-2.342;2022-12-18T14:37:11;100162.19;;;4.92;100.00
53889;BME280;41337;51.400;-2.342;2022-12-18T14:42:36;100147.97;;;5.24;100.00
53889;BME280;41337;51.400;-2.342;2022-12-18T14:47:37;100137.94;;;5.47;100.00
53889;BME280;41337;51.400;-2.342;2022-12-18T14:52:38;100135.53;;;5.62;100.00
53889;BME280;41337;51.400;-2.342;2022-12-18T14:57:39;100133.91;;;5.72;100.00
53889;BME280;41337;51.400;-2.342;2022-12-18T15:02:53;100140.94;;;5.82;100.00
53889;BME280;41337;51.400;-2.342;2022-12-18T15:08:35;100138.53;;;5.99;100.00
53889;BME280;41337;51.400;-2.342;2022-12-18T15:14:21;100137.78;;;6.10;100.00
53889;BME280;41337;51.400;-2.342;2022-12-18T15:19:46;100140.41;;;6.16;100.00
53889;BME280;41337;51.400;-2.342;2022-12-18T15:25:34;100131.00;;;6.22;100.00
53889;BME280;41337;51.400;-2.342;2022-12-18T15:30:37;100130.25;;;6.33;100.00
53889;BME280;41337;51.400;-2.342;2022-12-18T15:36:11;100125.97;;;6.39;100.00
53889;BME280;41337;51.400;-2.342;2022-12-18T15:41:22;100125.16;;;6.47;100.00
53889;BME280;41337;51.400;-2.342;2022-12-18T15:46:51;100109.66;;;6.50;100.00
53889;BME280;41337;51.400;-2.342;2022-12-18T15:52:15;100096.75;;;6.53;100.00
53889;BME280;41337;51.400;-2.342;2022-12-18T15:57:52;100090.75;;;6.58;100.00
53889;BME280;41337;51.400;-2.342;2022-12-18T16:02:53;100089.06;;;6.60;100.00
53889;BME280;41337;51.400;-2.342;2022-12-18T16:07:54;100086.47;;;6.65;100.00
53889;BME280;41337;51.400;-2.342;2022-12-18T16:12:55;100074.44;;;6.69;100.00
53889;BME280;41337;51.400;-2.342;2022-12-18T16:18:19;100057.25;;;6.78;100.00
53889;BME280;41337;51.400;-2.342;2022-12-18T16:23:20;100049.47;;;6.83;100.00
53889;BME280;41337;51.400;-2.342;2022-12-18T16:28:41;100048.63;;;6.86;100.00
53889;BME280;41337;51.400;-2.342;2022-12-18T16:39:45;100033.13;;;6.90;100.00
53889;BME280;41337;51.400;-2.342;2022-12-18T16:44:47;100034.00;;;6.95;100.00
53889;BME280;41337;51.400;-2.342;2022-12-18T16:49:54;100046.13;;;6.98;100.00
53889;BME280;41337;51.400;-2.342;2022-12-18T16:54:55;100034.03;;;7.00;100.00
53889;BME280;41337;51.400;-2.342;2022-12-18T16:59:56;100034.06;;;7.06;100.00
53889;BME280;41337;51.400;-2.342;2022-12-18T17:05:23;100020.28;;;7.15;100.00
53889;BME280;41337;51.400;-2.342;2022-12-18T17:10:24;100009.94;;;7.20;100.00
53889;BME280;41337;51.400;-2.342;2022-12-18T17:15:25;100004.75;;;7.29;100.00
53889;BME280;41337;51.400;-2.342;2022-12-18T17:20:51;99999.59;;;7.32;100.00
53889;BME280;41337;51.400;-2.342;2022-12-18T17:26:13;100001.34;;;7.39;100.00
53889;BME280;41337;51.400;-2.342;2022-12-18T17:31:21;99989.28;;;7.49;100.00
53889;BME280;41337;51.400;-2.342;2022-12-18T17:36:29;99971.13;;;7.58;100.00
53889;BME280;41337;51.400;-2.342;2022-12-18T17:42:07;99974.56;;;7.65;100.00
53889;BME280;41337;51.400;-2.342;2022-12-18T17:47:26;99966.81;;;7.68;100.00
53889;BME280;41337;51.400;-2.342;2022-12-18T17:53:02;99953.84;;;7.74;100.00
53889;BME280;41337;51.400;-2.342;2022-12-18T17:58:26;99959.88;;;7.76;100.00
53889;BME280;41337;51.400;-2.342;2022-12-18T18:03:56;99949.53;;;7.81;100.00
53889;BME280;41337;51.400;-2.342;2022-12-18T18:09:23;99953.84;;;7.85;100.00
53889;BME280;41337;51.400;-2.342;2022-12-18T18:14:49;99948.66;;;7.89;100.00
53889;BME280;41337;51.400;-2.342;2022-12-18T18:19:50;99947.78;;;7.98;100.00
53889;BME280;41337;51.400;-2.342;2022-12-18T18:25:20;99921.84;;;8.03;100.00
53889;BME280;41337;51.400;-2.342;2022-12-18T18:30:21;99918.38;;;8.07;100.00
53889;BME280;41337;51.400;-2.342;2022-12-18T18:35:22;99909.72;;;8.08;100.00
53889;BME280;41337;51.400;-2.342;2022-12-18T18:40:46;99914.03;;;8.11;100.00
53889;BME280;41337;51.400;-2.342;2022-12-18T18:45:47;99904.53;;;8.14;100.00
53889;BME280;41337;51.400;-2.342;2022-12-18T18:51:09;99888.97;;;8.14;100.00
53889;BME280;41337;51.400;-2.342;2022-12-18T18:56:32;99889.81;;;8.18;100.00
53889;BME280;41337;51.400;-2.342;2022-12-18T19:02:01;99869.06;;;8.22;100.00
53889;BME280;41337;51.400;-2.342;2022-12-18T19:07:28;99873.28;;;8.47;100.00
53889;BME280;41337;51.400;-2.342;2022-12-18T19:12:29;99860.25;;;8.60;100.00
53889;BME280;41337;51.400;-2.342;2022-12-18T19:18:15;99853.28;;;8.72;100.00
53889;BME280;41337;51.400;-2.342;2022-12-18T19:23:15;99844.56;;;8.82;100.00
53889;BME280;41337;51.400;-2.342;2022-12-18T19:28:36;99831.53;;;8.91;100.00
53889;BME280;41337;51.400;-2.342;2022-12-18T19:34:00;99834.00;;;9.05;100.00
53889;BME280;41337;51.400;-2.342;2022-12-18T19:39:08;99833.97;;;9.11;100.00
53889;BME280;41337;51.400;-2.342;2022-12-18T19:44:29;99833.91;;;9.22;100.00
53889;BME280;41337;51.400;-2.342;2022-12-18T19:49:30;99831.28;;;9.25;100.00
53889;BME280;41337;51.400;-2.342;2022-12-18T19:55:07;99820.81;;;9.28;100.00
53889;BME280;41337;51.400;-2.342;2022-12-18T20:00:09;99818.19;;;9.33;100.00
53889;BME280;41337;51.400;-2.342;2022-12-18T20:05:34;99811.19;;;9.41;100.00
53889;BME280;41337;51.400;-2.342;2022-12-18T20:10:55;99819.78;;;9.48;100.00
53889;BME280;41337;51.400;-2.342;2022-12-18T20:16:31;99792.88;;;9.57;100.00
53889;BME280;41337;51.400;-2.342;2022-12-18T20:21:32;99798.84;;;9.66;100.00
53889;BME280;41337;51.400;-2.342;2022-12-18T20:26:56;99799.66;;;9.70;100.00
53889;BME280;41337;51.400;-2.342;2022-12-18T20:31:57;99787.47;;;9.75;100.00
53889;BME280;41337;51.400;-2.342;2022-12-18T20:36:58;99792.63;;;9.78;100.00
53889;BME280;41337;51.400;-2.342;2022-12-18T20:42:19;99790.00;;;9.83;100.00
53889;BME280;41337;51.400;-2.342;2022-12-18T20:47:49;99783.56;;;10.11;100.00
53889;BME280;41337;51.400;-2.342;2022-12-18T20:53:12;99795.47;;;10.34;100.00
53889;BME280;41337;51.400;-2.342;2022-12-18T20:58:33;99807.41;;;10.49;100.00
53889;BME280;41337;51.400;-2.342;2022-12-18T21:04:00;99820.28;;;10.61;100.00
53889;BME280;41337;51.400;-2.342;2022-12-18T21:09:01;99814.94;;;10.71;100.00
53889;BME280;41337;51.400;-2.342;2022-12-18T21:14:03;99818.31;;;10.79;100.00
53889;BME280;41337;51.400;-2.342;2022-12-18T21:19:36;99812.03;;;10.92;100.00
53889;BME280;41337;51.400;-2.342;2022-12-18T21:24:37;99804.88;;;11.05;100.00
53889;BME280;41337;51.400;-2.342;2022-12-18T21:30:05;99810.88;;;11.10;100.00
53889;BME280;41337;51.400;-2.342;2022-12-18T21:35:24;99814.16;;;11.22;100.00
53889;BME280;41337;51.400;-2.342;2022-12-18T21:40:48;99817.47;;;11.33;100.00
53889;BME280;41337;51.400;-2.342;2022-12-18T21:46:09;99835.63;;;11.36;100.00
53889;BME280;41337;51.400;-2.342;2022-12-18T21:51:10;99832.94;;;11.42;100.00
53889;BME280;41337;51.400;-2.342;2022-12-18T21:56:11;99845.91;;;11.47;100.00
53889;BME280;41337;51.400;-2.342;2022-12-18T22:01:35;99853.56;;;11.57;100.00
53889;BME280;41337;51.400;-2.342;2022-12-18T22:06:36;99851.66;;;11.67;100.00
53889;BME280;41337;51.400;-2.342;2022-12-18T22:11:57;99859.47;;;11.69;100.00
53889;BME280;41337;51.400;-2.342;2022-12-18T22:16:58;99859.50;;;11.66;100.00
53889;BME280;41337;51.400;-2.342;2022-12-18T22:22:22;99856.28;;;11.50;100.00
53889;BME280;41337;51.400;-2.342;2022-12-18T22:27:23;99820.91;;;11.33;100.00
53889;BME280;41337;51.400;-2.342;2022-12-18T22:32:24;99810.63;;;11.24;100.00
53889;BME280;41337;51.400;-2.342;2022-12-18T22:37:44;99790.75;;;11.18;100.00
53889;BME280;41337;51.400;-2.342;2022-12-18T22:42:45;99790.81;;;11.15;100.00
53889;BME280;41337;51.400;-2.342;2022-12-18T22:48:09;99776.94;;;11.13;100.00
53889;BME280;41337;51.400;-2.342;2022-12-18T22:53:10;99776.03;;;11.14;100.00
53889;BME280;41337;51.400;-2.342;2022-12-18T22:58:11;99754.31;;;11.15;100.00
53889;BME280;41337;51.400;-2.342;2022-12-18T23:03:11;99759.53;;;11.14;100.00
53889;BME280;41337;51.400;-2.342;2022-12-18T23:08:51;99750.03;;;11.10;100.00
53889;BME280;41337;51.400;-2.342;2022-12-18T23:14:17;99744.03;;;11.06;100.00
53889;BME280;41337;51.400;-2.342;2022-12-18T23:19:19;99736.19;;;11.06;100.00
53889;BME280;41337;51.400;-2.342;2022-12-18T23:24:42;99748.44;;;11.02;100.00
53889;BME280;41337;51.400;-2.342;2022-12-18T23:29:43;99738.91;;;11.00;100.00
53889;BME280;41337;51.400;-2.342;2022-12-18T23:34:44;99726.75;;;11.00;100.00
53889;BME280;41337;51.400;-2.342;2022-12-18T23:39:46;99724.19;;;10.97;100.00
53889;BME280;41337;51.400;-2.342;2022-12-18T23:44:46;99725.91;;;10.98;100.00
53889;BME280;41337;51.400;-2.342;2022-12-18T23:50:22;99704.16;;;11.01;100.00
53889;BME280;41337;51.400;-2.342;2022-12-18T23:55:23;99699.75;;;11.03;100.00
